Mississippi River (Missouri), Chester (07020500)

StateMissouriLatestUnknown (257000 cfs)
RiverMississippi RiverRatingObservedEstimated
Updated2020-07-13 20:00 (23 minutes ago)Flood - The river is flooding. Obstacles can be treacherous or deadly. The river should be avoided at this stage for casual trips and definitely for the inexperienced. Trips should be attempted only with protective gear and equipment.Flood(none)(none)
Discharge257000 cfs (median: 229000 cfs)High - The river is high and potentially dangerous, especially for the young and / or inexperienced. Normal stream obstacles are sometimes difficult to navigate. Extended distances can be attempted, but canoe travel may not be advisable.High(none)(none)
Height17.64 feetGood - Conditions are ideal for a canoe or kayak. Boats typically will drag on fewer than one-quarter of riffles, if at all, and portages are unnecessary or rare. Normal float lengths can be attempted without a problem.Good(none)(none)
TrendFalling (falling over 24 hours)Low - River is low but can still be floated. Some riffles are okay but most come with significant dragging and might need a portage. Float lengths should be reduced to accommodate low flow, dragging, and portages.Low(none)(none)
USGSExternal icon USGS Site (External icon Google Maps)Poor - River is too low to float comfortably. Most or all riffles will drag or must be portaged and some obstacles (such as slick shelf rock) cause undue problems. Avoid the river at this stage for casual paddling trips.Poor(none)(none)

Trending Data

Plot Image

Trips for Mississippi River (Missouri), Chester (07020500)

DateStartEndDistanceConditionDischargeHeightFishingDetails

A total of 0 rows are displayed.

Condition Descriptions

Fishing Conditions

Fish Species

Notes

Classic Trip List

The classic River Trips application is still available for use. It is updated with the new system using a data retrofit. It is no longer maintained. The original River Trips application is no longer updated (as of 1 Dec 2016) but can be checked for errors or for the condition of the data before it was converted to the new system.

Gauge Data Table

ObservationHeightDischargeMaximum
Discharge
Minimum
Discharge
Mean
Discharge
P05P10P20P25P50
(Median)
P75P80P90P95
2020-07-13 20:00 17.64 257000 813000 (1993) 62500 (1988) 268000 88400 117000 146000 157000 229000 315000 370000 534000 613000
2020-07-13 19:30 17.68 258000 813000 (1993) 62500 (1988) 268000 88400 117000 146000 157000 229000 315000 370000 534000 613000
2020-07-13 19:00 17.70 258000 813000 (1993) 62500 (1988) 268000 88400 117000 146000 157000 229000 315000 370000 534000 613000
2020-07-13 18:30 17.66 257000 813000 (1993) 62500 (1988) 268000 88400 117000 146000 157000 229000 315000 370000 534000 613000
2020-07-13 18:00 17.74 258000 813000 (1993) 62500 (1988) 268000 88400 117000 146000 157000 229000 315000 370000 534000 613000
2020-07-13 17:30 17.81 260000 813000 (1993) 62500 (1988) 268000 88400 117000 146000 157000 229000 315000 370000 534000 613000
2020-07-13 17:00 17.63 257000 813000 (1993) 62500 (1988) 268000 88400 117000 146000 157000 229000 315000 370000 534000 613000
2020-07-13 16:30 17.79 259000 813000 (1993) 62500 (1988) 268000 88400 117000 146000 157000 229000 315000 370000 534000 613000
2020-07-13 16:00 17.78 259000 813000 (1993) 62500 (1988) 268000 88400 117000 146000 157000 229000 315000 370000 534000 613000
2020-07-13 15:30 17.75 255000 813000 (1993) 62500 (1988) 268000 88400 117000 146000 157000 229000 315000 370000 534000 613000
2020-07-13 15:00 17.75 255000 813000 (1993) 62500 (1988) 268000 88400 117000 146000 157000 229000 315000 370000 534000 613000
2020-07-13 14:30 17.72 254000 813000 (1993) 62500 (1988) 268000 88400 117000 146000 157000 229000 315000 370000 534000 613000
2020-07-13 14:00 17.76 255000 813000 (1993) 62500 (1988) 268000 88400 117000 146000 157000 229000 315000 370000 534000 613000
2020-07-13 13:30 17.79 255000 813000 (1993) 62500 (1988) 268000 88400 117000 146000 157000 229000 315000 370000 534000 613000
2020-07-13 13:00 17.88 257000 813000 (1993) 62500 (1988) 268000 88400 117000 146000 157000 229000 315000 370000 534000 613000
2020-07-13 12:30 17.72 254000 813000 (1993) 62500 (1988) 268000 88400 117000 146000 157000 229000 315000 370000 534000 613000
2020-07-13 12:00 17.75 255000 813000 (1993) 62500 (1988) 268000 88400 117000 146000 157000 229000 315000 370000 534000 613000
2020-07-13 11:30 17.77 255000 813000 (1993) 62500 (1988) 268000 88400 117000 146000 157000 229000 315000 370000 534000 613000
2020-07-13 11:00 17.74 255000 813000 (1993) 62500 (1988) 268000 88400 117000 146000 157000 229000 315000 370000 534000 613000
2020-07-13 10:30 17.64 253000 813000 (1993) 62500 (1988) 268000 88400 117000 146000 157000 229000 315000 370000 534000 613000
2020-07-13 10:00 17.78 255000 813000 (1993) 62500 (1988) 268000 88400 117000 146000 157000 229000 315000 370000 534000 613000
2020-07-13 09:30 17.81 256000 813000 (1993) 62500 (1988) 268000 88400 117000 146000 157000 229000 315000 370000 534000 613000
2020-07-13 09:00 17.71 254000 813000 (1993) 62500 (1988) 268000 88400 117000 146000 157000 229000 315000 370000 534000 613000
2020-07-13 08:30 17.84 256000 813000 (1993) 62500 (1988) 268000 88400 117000 146000 157000 229000 315000 370000 534000 613000
2020-07-13 08:00 17.73 254000 813000 (1993) 62500 (1988) 268000 88400 117000 146000 157000 229000 315000 370000 534000 613000
2020-07-13 07:30 17.82 256000 813000 (1993) 62500 (1988) 268000 88400 117000 146000 157000 229000 315000 370000 534000 613000
2020-07-13 07:00 17.87 257000 813000 (1993) 62500 (1988) 268000 88400 117000 146000 157000 229000 315000 370000 534000 613000
2020-07-13 06:30 17.74 255000 813000 (1993) 62500 (1988) 268000 88400 117000 146000 157000 229000 315000 370000 534000 613000
2020-07-13 06:00 17.81 256000 813000 (1993) 62500 (1988) 268000 88400 117000 146000 157000 229000 315000 370000 534000 613000
2020-07-13 05:30 17.88 257000 813000 (1993) 62500 (1988) 268000 88400 117000 146000 157000 229000 315000 370000 534000 613000
2020-07-13 05:00 17.88 257000 813000 (1993) 62500 (1988) 268000 88400 117000 146000 157000 229000 315000 370000 534000 613000
2020-07-13 04:30 17.88 257000 813000 (1993) 62500 (1988) 268000 88400 117000 146000 157000 229000 315000 370000 534000 613000
2020-07-13 04:00 17.79 255000 813000 (1993) 62500 (1988) 268000 88400 117000 146000 157000 229000 315000 370000 534000 613000
2020-07-13 03:30 17.77 255000 813000 (1993) 62500 (1988) 268000 88400 117000 146000 157000 229000 315000 370000 534000 613000
2020-07-13 03:00 17.90 257000 813000 (1993) 62500 (1988) 268000 88400 117000 146000 157000 229000 315000 370000 534000 613000
2020-07-13 02:30 17.89 257000 813000 (1993) 62500 (1988) 268000 88400 117000 146000 157000 229000 315000 370000 534000 613000
2020-07-13 02:00 17.90 257000 813000 (1993) 62500 (1988) 268000 88400 117000 146000 157000 229000 315000 370000 534000 613000
2020-07-13 01:30 17.95 258000 813000 (1993) 62500 (1988) 268000 88400 117000 146000 157000 229000 315000 370000 534000 613000
2020-07-13 01:00 17.91 257000 813000 (1993) 62500 (1988) 268000 88400 117000 146000 157000 229000 315000 370000 534000 613000
2020-07-13 00:30 18.04 259000 813000 (1993) 62500 (1988) 268000 88400 117000 146000 157000 229000 315000 370000 534000 613000
2020-07-13 00:00 17.98 258000 813000 (1993) 62500 (1988) 268000 88400 117000 146000 157000 229000 315000 370000 534000 613000
2020-07-12 23:30 18.06 260000 808000 (1993) 59600 (1988) 273000 93200 121000 151000 168000 235000 332000 387000 538000 611000
2020-07-12 23:00 17.93 258000 808000 (1993) 59600 (1988) 273000 93200 121000 151000 168000 235000 332000 387000 538000 611000
2020-07-12 22:30 18.08 260000 808000 (1993) 59600 (1988) 273000 93200 121000 151000 168000 235000 332000 387000 538000 611000
2020-07-12 22:00 17.95 258000 808000 (1993) 59600 (1988) 273000 93200 121000 151000 168000 235000 332000 387000 538000 611000
2020-07-12 21:30 18.11 260000 808000 (1993) 59600 (1988) 273000 93200 121000 151000 168000 235000 332000 387000 538000 611000
2020-07-12 21:00 18.06 260000 808000 (1993) 59600 (1988) 273000 93200 121000 151000 168000 235000 332000 387000 538000 611000
2020-07-12 20:30 18.00 259000 808000 (1993) 59600 (1988) 273000 93200 121000 151000 168000 235000 332000 387000 538000 611000
2020-07-12 20:00 18.14 261000 808000 (1993) 59600 (1988) 273000 93200 121000 151000 168000 235000 332000 387000 538000 611000
2020-07-12 19:30 18.19 262000 808000 (1993) 59600 (1988) 273000 93200 121000 151000 168000 235000 332000 387000 538000 611000
2020-07-12 19:00 18.20 262000 808000 (1993) 59600 (1988) 273000 93200 121000 151000 168000 235000 332000 387000 538000 611000
2020-07-12 18:30 18.19 262000 808000 (1993) 59600 (1988) 273000 93200 121000 151000 168000 235000 332000 387000 538000 611000
2020-07-12 18:00 18.24 262000 808000 (1993) 59600 (1988) 273000 93200 121000 151000 168000 235000 332000 387000 538000 611000
2020-07-12 17:30 18.29 263000 808000 (1993) 59600 (1988) 273000 93200 121000 151000 168000 235000 332000 387000 538000 611000
2020-07-12 17:00 18.28 263000 808000 (1993) 59600 (1988) 273000 93200 121000 151000 168000 235000 332000 387000 538000 611000
2020-07-12 16:30 18.33 264000 808000 (1993) 59600 (1988) 273000 93200 121000 151000 168000 235000 332000 387000 538000 611000
2020-07-12 16:00 18.34 264000 808000 (1993) 59600 (1988) 273000 93200 121000 151000 168000 235000 332000 387000 538000 611000
2020-07-12 15:30 18.30 263000 808000 (1993) 59600 (1988) 273000 93200 121000 151000 168000 235000 332000 387000 538000 611000
2020-07-12 15:00 18.26 263000 808000 (1993) 59600 (1988) 273000 93200 121000 151000 168000 235000 332000 387000 538000 611000
2020-07-12 14:30 18.20 262000 808000 (1993) 59600 (1988) 273000 93200 121000 151000 168000 235000 332000 387000 538000 611000
2020-07-12 14:00 18.24 262000 808000 (1993) 59600 (1988) 273000 93200 121000 151000 168000 235000 332000 387000 538000 611000
2020-07-12 13:30 18.32 264000 808000 (1993) 59600 (1988) 273000 93200 121000 151000 168000 235000 332000 387000 538000 611000
2020-07-12 13:00 18.36 264000 808000 (1993) 59600 (1988) 273000 93200 121000 151000 168000 235000 332000 387000 538000 611000
2020-07-12 12:30 18.35 264000 808000 (1993) 59600 (1988) 273000 93200 121000 151000 168000 235000 332000 387000 538000 611000
2020-07-12 12:00 18.26 263000 808000 (1993) 59600 (1988) 273000 93200 121000 151000 168000 235000 332000 387000 538000 611000
2020-07-12 11:30 18.36 264000 808000 (1993) 59600 (1988) 273000 93200 121000 151000 168000 235000 332000 387000 538000 611000
2020-07-12 11:00 18.39 265000 808000 (1993) 59600 (1988) 273000 93200 121000 151000 168000 235000 332000 387000 538000 611000
2020-07-12 10:30 18.47 266000 808000 (1993) 59600 (1988) 273000 93200 121000 151000 168000 235000 332000 387000 538000 611000
2020-07-12 10:00 18.32 264000 808000 (1993) 59600 (1988) 273000 93200 121000 151000 168000 235000 332000 387000 538000 611000
2020-07-12 09:30 18.47 266000 808000 (1993) 59600 (1988) 273000 93200 121000 151000 168000 235000 332000 387000 538000 611000
2020-07-12 09:00 18.43 265000 808000 (1993) 59600 (1988) 273000 93200 121000 151000 168000 235000 332000 387000 538000 611000
2020-07-12 08:30 18.43 265000 808000 (1993) 59600 (1988) 273000 93200 121000 151000 168000 235000 332000 387000 538000 611000
2020-07-12 08:00 18.39 265000 808000 (1993) 59600 (1988) 273000 93200 121000 151000 168000 235000 332000 387000 538000 611000
2020-07-12 07:30 18.47 266000 808000 (1993) 59600 (1988) 273000 93200 121000 151000 168000 235000 332000 387000 538000 611000
2020-07-12 07:00 18.45 266000 808000 (1993) 59600 (1988) 273000 93200 121000 151000 168000 235000 332000 387000 538000 611000
2020-07-12 06:30 18.35 264000 808000 (1993) 59600 (1988) 273000 93200 121000 151000 168000 235000 332000 387000 538000 611000
2020-07-12 06:00 18.52 267000 808000 (1993) 59600 (1988) 273000 93200 121000 151000 168000 235000 332000 387000 538000 611000
2020-07-12 05:30 18.55 267000 808000 (1993) 59600 (1988) 273000 93200 121000 151000 168000 235000 332000 387000 538000 611000
2020-07-12 05:00 18.53 267000 808000 (1993) 59600 (1988) 273000 93200 121000 151000 168000 235000 332000 387000 538000 611000
2020-07-12 04:30 18.62 269000 808000 (1993) 59600 (1988) 273000 93200 121000 151000 168000 235000 332000 387000 538000 611000
2020-07-12 04:00 18.57 268000 808000 (1993) 59600 (1988) 273000 93200 121000 151000 168000 235000 332000 387000 538000 611000
2020-07-12 03:30 18.49 266000 808000 (1993) 59600 (1988) 273000 93200 121000 151000 168000 235000 332000 387000 538000 611000
2020-07-12 03:00 18.59 268000 808000 (1993) 59600 (1988) 273000 93200 121000 151000 168000 235000 332000 387000 538000 611000
2020-07-12 02:30 18.69 270000 808000 (1993) 59600 (1988) 273000 93200 121000 151000 168000 235000 332000 387000 538000 611000
2020-07-12 02:00 18.53 267000 808000 (1993) 59600 (1988) 273000 93200 121000 151000 168000 235000 332000 387000 538000 611000
2020-07-12 01:30 18.68 270000 808000 (1993) 59600 (1988) 273000 93200 121000 151000 168000 235000 332000 387000 538000 611000
2020-07-12 01:00 18.61 268000 808000 (1993) 59600 (1988) 273000 93200 121000 151000 168000 235000 332000 387000 538000 611000
2020-07-12 00:30 18.66 269000 808000 (1993) 59600 (1988) 273000 93200 121000 151000 168000 235000 332000 387000 538000 611000
2020-07-12 00:00 18.85 272000 808000 (1993) 59600 (1988) 273000 93200 121000 151000 168000 235000 332000 387000 538000 611000
2020-07-11 23:30 18.74 270000 786000 (1993) 60500 (1988) 278000 90700 123000 152000 168000 239000 358000 396000 527000 599000
2020-07-11 23:00 18.90 273000 786000 (1993) 60500 (1988) 278000 90700 123000 152000 168000 239000 358000 396000 527000 599000
2020-07-11 22:30 18.85 272000 786000 (1993) 60500 (1988) 278000 90700 123000 152000 168000 239000 358000 396000 527000 599000
2020-07-11 22:00 18.93 274000 786000 (1993) 60500 (1988) 278000 90700 123000 152000 168000 239000 358000 396000 527000 599000
2020-07-11 21:30 18.88 273000 786000 (1993) 60500 (1988) 278000 90700 123000 152000 168000 239000 358000 396000 527000 599000
2020-07-11 21:00 18.94 274000 786000 (1993) 60500 (1988) 278000 90700 123000 152000 168000 239000 358000 396000 527000 599000
2020-07-11 20:30 18.98 274000 786000 (1993) 60500 (1988) 278000 90700 123000 152000 168000 239000 358000 396000 527000 599000
2020-07-11 20:00 18.99 275000 786000 (1993) 60500 (1988) 278000 90700 123000 152000 168000 239000 358000 396000 527000 599000
2020-07-11 19:30 19.08 276000 786000 (1993) 60500 (1988) 278000 90700 123000 152000 168000 239000 358000 396000 527000 599000
2020-07-11 19:00 19.14 277000 786000 (1993) 60500 (1988) 278000 90700 123000 152000 168000 239000 358000 396000 527000 599000
2020-07-11 18:30 19.19 278000 786000 (1993) 60500 (1988) 278000 90700 123000 152000 168000 239000 358000 396000 527000 599000
2020-07-11 18:00 19.16 277000 786000 (1993) 60500 (1988) 278000 90700 123000 152000 168000 239000 358000 396000 527000 599000
2020-07-11 17:30 18.97 274000 786000 (1993) 60500 (1988) 278000 90700 123000 152000 168000 239000 358000 396000 527000 599000
2020-07-11 17:00 19.09 276000 786000 (1993) 60500 (1988) 278000 90700 123000 152000 168000 239000 358000 396000 527000 599000
2020-07-11 16:30 19.02 275000 786000 (1993) 60500 (1988) 278000 90700 123000 152000 168000 239000 358000 396000 527000 599000
2020-07-11 16:00 19.19 278000 786000 (1993) 60500 (1988) 278000 90700 123000 152000 168000 239000 358000 396000 527000 599000
2020-07-11 15:30 19.17 278000 786000 (1993) 60500 (1988) 278000 90700 123000 152000 168000 239000 358000 396000 527000 599000
2020-07-11 15:00 19.18 278000 786000 (1993) 60500 (1988) 278000 90700 123000 152000 168000 239000 358000 396000 527000 599000
2020-07-11 14:30 19.11 277000 786000 (1993) 60500 (1988) 278000 90700 123000 152000 168000 239000 358000 396000 527000 599000
2020-07-11 14:00 19.16 277000 786000 (1993) 60500 (1988) 278000 90700 123000 152000 168000 239000 358000 396000 527000 599000
2020-07-11 13:30 19.13 277000 786000 (1993) 60500 (1988) 278000 90700 123000 152000 168000 239000 358000 396000 527000 599000
2020-07-11 13:00 19.16 277000 786000 (1993) 60500 (1988) 278000 90700 123000 152000 168000 239000 358000 396000 527000 599000
2020-07-11 12:30 19.14 277000 786000 (1993) 60500 (1988) 278000 90700 123000 152000 168000 239000 358000 396000 527000 599000
2020-07-11 12:00 19.08 276000 786000 (1993) 60500 (1988) 278000 90700 123000 152000 168000 239000 358000 396000 527000 599000
2020-07-11 11:30 19.16 277000 786000 (1993) 60500 (1988) 278000 90700 123000 152000 168000 239000 358000 396000 527000 599000
2020-07-11 11:00 19.27 279000 786000 (1993) 60500 (1988) 278000 90700 123000 152000 168000 239000 358000 396000 527000 599000
2020-07-11 10:30 19.17 278000 786000 (1993) 60500 (1988) 278000 90700 123000 152000 168000 239000 358000 396000 527000 599000
2020-07-11 10:00 19.15 277000 786000 (1993) 60500 (1988) 278000 90700 123000 152000 168000 239000 358000 396000 527000 599000
2020-07-11 09:30 19.11 277000 786000 (1993) 60500 (1988) 278000 90700 123000 152000 168000 239000 358000 396000 527000 599000
2020-07-11 09:00 19.26 279000 786000 (1993) 60500 (1988) 278000 90700 123000 152000 168000 239000 358000 396000 527000 599000
2020-07-11 08:30 19.16 277000 786000 (1993) 60500 (1988) 278000 90700 123000 152000 168000 239000 358000 396000 527000 599000
2020-07-11 08:00 19.23 278000 786000 (1993) 60500 (1988) 278000 90700 123000 152000 168000 239000 358000 396000 527000 599000
2020-07-11 07:30 19.09 276000 786000 (1993) 60500 (1988) 278000 90700 123000 152000 168000 239000 358000 396000 527000 599000
2020-07-11 07:00 19.07 276000 786000 (1993) 60500 (1988) 278000 90700 123000 152000 168000 239000 358000 396000 527000 599000
2020-07-11 06:30 19.20 278000 786000 (1993) 60500 (1988) 278000 90700 123000 152000 168000 239000 358000 396000 527000 599000
2020-07-11 06:00 19.26 279000 786000 (1993) 60500 (1988) 278000 90700 123000 152000 168000 239000 358000 396000 527000 599000
2020-07-11 05:30 19.15 277000 786000 (1993) 60500 (1988) 278000 90700 123000 152000 168000 239000 358000 396000 527000 599000
2020-07-11 05:00 19.14 277000 786000 (1993) 60500 (1988) 278000 90700 123000 152000 168000 239000 358000 396000 527000 599000
2020-07-11 04:30 19.19 278000 786000 (1993) 60500 (1988) 278000 90700 123000 152000 168000 239000 358000 396000 527000 599000
2020-07-11 04:00 19.42 282000 786000 (1993) 60500 (1988) 278000 90700 123000 152000 168000 239000 358000 396000 527000 599000
2020-07-11 03:30 19.33 280000 786000 (1993) 60500 (1988) 278000 90700 123000 152000 168000 239000 358000 396000 527000 599000
2020-07-11 03:00 19.31 280000 786000 (1993) 60500 (1988) 278000 90700 123000 152000 168000 239000 358000 396000 527000 599000
2020-07-11 02:30 19.52 283000 786000 (1993) 60500 (1988) 278000 90700 123000 152000 168000 239000 358000 396000 527000 599000
2020-07-11 02:00 19.42 282000 786000 (1993) 60500 (1988) 278000 90700 123000 152000 168000 239000 358000 396000 527000 599000
2020-07-11 01:30 19.51 283000 786000 (1993) 60500 (1988) 278000 90700 123000 152000 168000 239000 358000 396000 527000 599000
2020-07-11 01:00 19.45 282000 786000 (1993) 60500 (1988) 278000 90700 123000 152000 168000 239000 358000 396000 527000 599000
2020-07-11 00:30 19.54 284000 786000 (1993) 60500 (1988) 278000 90700 123000 152000 168000 239000 358000 396000 527000 599000
2020-07-11 00:00 19.49 283000 786000 (1993) 60500 (1988) 278000 90700 123000 152000 168000 239000 358000 396000 527000 599000
2020-07-10 23:30 19.68 286000 751000 (1993) 60800 (1988) 281000 91600 124000 146000 167000 247000 351000 407000 544000 582000
2020-07-10 23:00 19.66 286000 751000 (1993) 60800 (1988) 281000 91600 124000 146000 167000 247000 351000 407000 544000 582000
2020-07-10 22:30 19.57 284000 751000 (1993) 60800 (1988) 281000 91600 124000 146000 167000 247000 351000 407000 544000 582000
2020-07-10 22:00 19.68 286000 751000 (1993) 60800 (1988) 281000 91600 124000 146000 167000 247000 351000 407000 544000 582000
2020-07-10 21:30 19.70 286000 751000 (1993) 60800 (1988) 281000 91600 124000 146000 167000 247000 351000 407000 544000 582000
2020-07-10 21:00 19.81 288000 751000 (1993) 60800 (1988) 281000 91600 124000 146000 167000 247000 351000 407000 544000 582000
2020-07-10 20:30 19.72 287000 751000 (1993) 60800 (1988) 281000 91600 124000 146000 167000 247000 351000 407000 544000 582000
2020-07-10 20:00 19.93 290000 751000 (1993) 60800 (1988) 281000 91600 124000 146000 167000 247000 351000 407000 544000 582000
2020-07-10 19:30 19.94 290000 751000 (1993) 60800 (1988) 281000 91600 124000 146000 167000 247000 351000 407000 544000 582000
2020-07-10 19:00 19.91 290000 751000 (1993) 60800 (1988) 281000 91600 124000 146000 167000 247000 351000 407000 544000 582000
2020-07-10 18:30 19.97 291000 751000 (1993) 60800 (1988) 281000 91600 124000 146000 167000 247000 351000 407000 544000 582000
2020-07-10 18:00 19.96 291000 751000 (1993) 60800 (1988) 281000 91600 124000 146000 167000 247000 351000 407000 544000 582000
2020-07-10 17:30 20.08 293000 751000 (1993) 60800 (1988) 281000 91600 124000 146000 167000 247000 351000 407000 544000 582000
2020-07-10 17:00 19.92 290000 751000 (1993) 60800 (1988) 281000 91600 124000 146000 167000 247000 351000 407000 544000 582000
2020-07-10 16:30 20.08 293000 751000 (1993) 60800 (1988) 281000 91600 124000 146000 167000 247000 351000 407000 544000 582000
2020-07-10 16:00 19.95 291000 751000 (1993) 60800 (1988) 281000 91600 124000 146000 167000 247000 351000 407000 544000 582000
2020-07-10 15:30 20.04 292000 751000 (1993) 60800 (1988) 281000 91600 124000 146000 167000 247000 351000 407000 544000 582000
2020-07-10 15:00 20.08 293000 751000 (1993) 60800 (1988) 281000 91600 124000 146000 167000 247000 351000 407000 544000 582000
2020-07-10 14:30 19.98 291000 751000 (1993) 60800 (1988) 281000 91600 124000 146000 167000 247000 351000 407000 544000 582000
2020-07-10 14:00 20.10 293000 751000 (1993) 60800 (1988) 281000 91600 124000 146000 167000 247000 351000 407000 544000 582000
2020-07-10 13:30 20.13 294000 751000 (1993) 60800 (1988) 281000 91600 124000 146000 167000 247000 351000 407000 544000 582000
2020-07-10 13:00 19.96 291000 751000 (1993) 60800 (1988) 281000 91600 124000 146000 167000 247000 351000 407000 544000 582000
2020-07-10 12:30 20.11 293000 751000 (1993) 60800 (1988) 281000 91600 124000 146000 167000 247000 351000 407000 544000 582000
2020-07-10 12:00 20.12 293000 751000 (1993) 60800 (1988) 281000 91600 124000 146000 167000 247000 351000 407000 544000 582000
2020-07-10 11:30 20.18 294000 751000 (1993) 60800 (1988) 281000 91600 124000 146000 167000 247000 351000 407000 544000 582000
2020-07-10 11:00 20.14 294000 751000 (1993) 60800 (1988) 281000 91600 124000 146000 167000 247000 351000 407000 544000 582000
2020-07-10 10:30 20.17 294000 751000 (1993) 60800 (1988) 281000 91600 124000 146000 167000 247000 351000 407000 544000 582000
2020-07-10 10:00 20.17 294000 751000 (1993) 60800 (1988) 281000 91600 124000 146000 167000 247000 351000 407000 544000 582000
2020-07-10 09:30 20.25 296000 751000 (1993) 60800 (1988) 281000 91600 124000 146000 167000 247000 351000 407000 544000 582000
2020-07-10 09:00 20.33 297000 751000 (1993) 60800 (1988) 281000 91600 124000 146000 167000 247000 351000 407000 544000 582000
2020-07-10 08:30 20.33 297000 751000 (1993) 60800 (1988) 281000 91600 124000 146000 167000 247000 351000 407000 544000 582000
2020-07-10 08:00 20.25 296000 751000 (1993) 60800 (1988) 281000 91600 124000 146000 167000 247000 351000 407000 544000 582000
2020-07-10 07:30 20.45 299000 751000 (1993) 60800 (1988) 281000 91600 124000 146000 167000 247000 351000 407000 544000 582000
2020-07-10 07:00 20.34 297000 751000 (1993) 60800 (1988) 281000 91600 124000 146000 167000 247000 351000 407000 544000 582000
2020-07-10 06:30 20.49 300000 751000 (1993) 60800 (1988) 281000 91600 124000 146000 167000 247000 351000 407000 544000 582000
2020-07-10 06:00 20.36 298000 751000 (1993) 60800 (1988) 281000 91600 124000 146000 167000 247000 351000 407000 544000 582000
2020-07-10 05:30 20.49 300000 751000 (1993) 60800 (1988) 281000 91600 124000 146000 167000 247000 351000 407000 544000 582000
2020-07-10 05:00 20.55 301000 751000 (1993) 60800 (1988) 281000 91600 124000 146000 167000 247000 351000 407000 544000 582000
2020-07-10 04:30 20.44 299000 751000 (1993) 60800 (1988) 281000 91600 124000 146000 167000 247000 351000 407000 544000 582000
2020-07-10 04:00 20.59 302000 751000 (1993) 60800 (1988) 281000 91600 124000 146000 167000 247000 351000 407000 544000 582000
2020-07-10 03:30 20.65 303000 751000 (1993) 60800 (1988) 281000 91600 124000 146000 167000 247000 351000 407000 544000 582000
2020-07-10 03:00 20.70 303000 751000 (1993) 60800 (1988) 281000 91600 124000 146000 167000 247000 351000 407000 544000 582000
2020-07-10 02:30 20.57 301000 751000 (1993) 60800 (1988) 281000 91600 124000 146000 167000 247000 351000 407000 544000 582000
2020-07-10 02:00 20.59 302000 751000 (1993) 60800 (1988) 281000 91600 124000 146000 167000 247000 351000 407000 544000 582000
2020-07-10 01:30 20.81 305000 751000 (1993) 60800 (1988) 281000 91600 124000 146000 167000 247000 351000 407000 544000 582000
2020-07-10 01:00 20.84 306000 751000 (1993) 60800 (1988) 281000 91600 124000 146000 167000 247000 351000 407000 544000 582000
2020-07-10 00:30 20.81 305000 751000 (1993) 60800 (1988) 281000 91600 124000 146000 167000 247000 351000 407000 544000 582000
2020-07-10 00:00 20.85 306000 751000 (1993) 60800 (1988) 281000 91600 124000 146000 167000 247000 351000 407000 544000 582000
2020-07-09 23:30 20.91 307000 734000 (1993) 66000 (1988) 286000 99800 129000 157000 170000 244000 359000 417000 546000 593000
2020-07-09 23:00 20.92 307000 734000 (1993) 66000 (1988) 286000 99800 129000 157000 170000 244000 359000 417000 546000 593000
2020-07-09 22:30 20.99 309000 734000 (1993) 66000 (1988) 286000 99800 129000 157000 170000 244000 359000 417000 546000 593000
2020-07-09 22:00 20.92 307000 734000 (1993) 66000 (1988) 286000 99800 129000 157000 170000 244000 359000 417000 546000 593000
2020-07-09 21:30 21.06 310000 734000 (1993) 66000 (1988) 286000 99800 129000 157000 170000 244000 359000 417000 546000 593000
2020-07-09 21:00 20.88 307000 734000 (1993) 66000 (1988) 286000 99800 129000 157000 170000 244000 359000 417000 546000 593000
2020-07-09 20:30 21.08 310000 734000 (1993) 66000 (1988) 286000 99800 129000 157000 170000 244000 359000 417000 546000 593000
2020-07-09 20:00 21.04 309000 734000 (1993) 66000 (1988) 286000 99800 129000 157000 170000 244000 359000 417000 546000 593000
2020-07-09 19:30 21.16 312000 734000 (1993) 66000 (1988) 286000 99800 129000 157000 170000 244000 359000 417000 546000 593000
2020-07-09 19:00 21.13 311000 734000 (1993) 66000 (1988) 286000 99800 129000 157000 170000 244000 359000 417000 546000 593000
2020-07-09 18:30 21.15 311000 734000 (1993) 66000 (1988) 286000 99800 129000 157000 170000 244000 359000 417000 546000 593000
2020-07-09 18:00 21.17 312000 734000 (1993) 66000 (1988) 286000 99800 129000 157000 170000 244000 359000 417000 546000 593000
2020-07-09 17:30 21.11 311000 734000 (1993) 66000 (1988) 286000 99800 129000 157000 170000 244000 359000 417000 546000 593000
2020-07-09 17:00 21.29 314000 734000 (1993) 66000 (1988) 286000 99800 129000 157000 170000 244000 359000 417000 546000 593000
2020-07-09 16:30 21.07 310000 734000 (1993) 66000 (1988) 286000 99800 129000 157000 170000 244000 359000 417000 546000 593000
2020-07-09 16:00 21.28 314000 734000 (1993) 66000 (1988) 286000 99800 129000 157000 170000 244000 359000 417000 546000 593000
2020-07-09 15:30 21.24 313000 734000 (1993) 66000 (1988) 286000 99800 129000 157000 170000 244000 359000 417000 546000 593000
2020-07-09 15:00 21.25 313000 734000 (1993) 66000 (1988) 286000 99800 129000 157000 170000 244000 359000 417000 546000 593000
2020-07-09 14:30 21.29 314000 734000 (1993) 66000 (1988) 286000 99800 129000 157000 170000 244000 359000 417000 546000 593000
2020-07-09 14:00 21.24 313000 734000 (1993) 66000 (1988) 286000 99800 129000 157000 170000 244000 359000 417000 546000 593000
2020-07-09 13:30 21.37 315000 734000 (1993) 66000 (1988) 286000 99800 129000 157000 170000 244000 359000 417000 546000 593000
2020-07-09 13:00 21.33 315000 734000 (1993) 66000 (1988) 286000 99800 129000 157000 170000 244000 359000 417000 546000 593000
2020-07-09 12:30 21.36 315000 734000 (1993) 66000 (1988) 286000 99800 129000 157000 170000 244000 359000 417000 546000 593000
2020-07-09 12:00 21.42 316000 734000 (1993) 66000 (1988) 286000 99800 129000 157000 170000 244000 359000 417000 546000 593000
2020-07-09 11:30 21.39 316000 734000 (1993) 66000 (1988) 286000 99800 129000 157000 170000 244000 359000 417000 546000 593000
2020-07-09 11:00 21.35 315000 734000 (1993) 66000 (1988) 286000 99800 129000 157000 170000 244000 359000 417000 546000 593000
2020-07-09 10:30 21.38 315000 734000 (1993) 66000 (1988) 286000 99800 129000 157000 170000 244000 359000 417000 546000 593000
2020-07-09 10:00 21.41 316000 734000 (1993) 66000 (1988) 286000 99800 129000 157000 170000 244000 359000 417000 546000 593000
2020-07-09 09:30 21.32 314000 734000 (1993) 66000 (1988) 286000 99800 129000 157000 170000 244000 359000 417000 546000 593000
2020-07-09 09:00 21.55 318000 734000 (1993) 66000 (1988) 286000 99800 129000 157000 170000 244000 359000 417000 546000 593000
2020-07-09 08:30 21.37 315000 734000 (1993) 66000 (1988) 286000 99800 129000 157000 170000 244000 359000 417000 546000 593000
2020-07-09 08:00 21.46 317000 734000 (1993) 66000 (1988) 286000 99800 129000 157000 170000 244000 359000 417000 546000 593000
2020-07-09 07:30 21.34 315000 734000 (1993) 66000 (1988) 286000 99800 129000 157000 170000 244000 359000 417000 546000 593000
2020-07-09 07:00 21.57 319000 734000 (1993) 66000 (1988) 286000 99800 129000 157000 170000 244000 359000 417000 546000 593000
2020-07-09 06:30 21.47 317000 734000 (1993) 66000 (1988) 286000 99800 129000 157000 170000 244000 359000 417000 546000 593000
2020-07-09 06:00 21.58 319000 734000 (1993) 66000 (1988) 286000 99800 129000 157000 170000 244000 359000 417000 546000 593000
2020-07-09 05:30 21.55 318000 734000 (1993) 66000 (1988) 286000 99800 129000 157000 170000 244000 359000 417000 546000 593000
2020-07-09 05:00 21.60 319000 734000 (1993) 66000 (1988) 286000 99800 129000 157000 170000 244000 359000 417000 546000 593000
2020-07-09 04:30 21.59 319000 734000 (1993) 66000 (1988) 286000 99800 129000 157000 170000 244000 359000 417000 546000 593000
2020-07-09 04:00 21.52 318000 734000 (1993) 66000 (1988) 286000 99800 129000 157000 170000 244000 359000 417000 546000 593000
2020-07-09 03:30 21.62 320000 734000 (1993) 66000 (1988) 286000 99800 129000 157000 170000 244000 359000 417000 546000 593000
2020-07-09 03:00 21.69 321000 734000 (1993) 66000 (1988) 286000 99800 129000 157000 170000 244000 359000 417000 546000 593000
2020-07-09 02:30 21.42 316000 734000 (1993) 66000 (1988) 286000 99800 129000 157000 170000 244000 359000 417000 546000 593000
2020-07-09 02:00 21.68 321000 734000 (1993) 66000 (1988) 286000 99800 129000 157000 170000 244000 359000 417000 546000 593000
2020-07-09 01:30 21.80 323000 734000 (1993) 66000 (1988) 286000 99800 129000 157000 170000 244000 359000 417000 546000 593000
2020-07-09 01:00 21.86 324000 734000 (1993) 66000 (1988) 286000 99800 129000 157000 170000 244000 359000 417000 546000 593000
2020-07-09 00:30 21.86 324000 734000 (1993) 66000 (1988) 286000 99800 129000 157000 170000 244000 359000 417000 546000 593000
2020-07-09 00:00 21.95 326000 734000 (1993) 66000 (1988) 286000 99800 129000 157000 170000 244000 359000 417000 546000 593000
2020-07-08 23:30 21.83 324000 764000 (1947) 68100 (1988) 291000 98900 125000 160000 175000 246000 369000 417000 556000 614000
2020-07-08 23:00 21.98 326000 764000 (1947) 68100 (1988) 291000 98900 125000 160000 175000 246000 369000 417000 556000 614000
2020-07-08 22:30 21.90 325000 764000 (1947) 68100 (1988) 291000 98900 125000 160000 175000 246000 369000 417000 556000 614000
2020-07-08 22:00 21.97 326000 764000 (1947) 68100 (1988) 291000 98900 125000 160000 175000 246000 369000 417000 556000 614000
2020-07-08 21:30 21.97 326000 764000 (1947) 68100 (1988) 291000 98900 125000 160000 175000 246000 369000 417000 556000 614000
2020-07-08 21:00 22.00 327000 764000 (1947) 68100 (1988) 291000 98900 125000 160000 175000 246000 369000 417000 556000 614000
2020-07-08 20:30 22.04 327000 764000 (1947) 68100 (1988) 291000 98900 125000 160000 175000 246000 369000 417000 556000 614000
2020-07-08 20:00 22.17 330000 764000 (1947) 68100 (1988) 291000 98900 125000 160000 175000 246000 369000 417000 556000 614000
2020-07-08 19:30 22.03 327000 764000 (1947) 68100 (1988) 291000 98900 125000 160000 175000 246000 369000 417000 556000 614000
2020-07-08 19:00 22.09 328000 764000 (1947) 68100 (1988) 291000 98900 125000 160000 175000 246000 369000 417000 556000 614000
2020-07-08 18:30 22.19 330000 764000 (1947) 68100 (1988) 291000 98900 125000 160000 175000 246000 369000 417000 556000 614000
2020-07-08 18:00 22.22 331000 764000 (1947) 68100 (1988) 291000 98900 125000 160000 175000 246000 369000 417000 556000 614000
2020-07-08 17:30 22.31 332000 764000 (1947) 68100 (1988) 291000 98900 125000 160000 175000 246000 369000 417000 556000 614000
2020-07-08 17:00 22.35 333000 764000 (1947) 68100 (1988) 291000 98900 125000 160000 175000 246000 369000 417000 556000 614000
2020-07-08 16:30 22.49 336000 764000 (1947) 68100 (1988) 291000 98900 125000 160000 175000 246000 369000 417000 556000 614000
2020-07-08 16:00 22.51 336000 764000 (1947) 68100 (1988) 291000 98900 125000 160000 175000 246000 369000 417000 556000 614000
2020-07-08 15:30 22.48 335000 764000 (1947) 68100 (1988) 291000 98900 125000 160000 175000 246000 369000 417000 556000 614000
2020-07-08 15:00 22.48 335000 764000 (1947) 68100 (1988) 291000 98900 125000 160000 175000 246000 369000 417000 556000 614000
2020-07-08 14:30 22.60 338000 764000 (1947) 68100 (1988) 291000 98900 125000 160000 175000 246000 369000 417000 556000 614000
2020-07-08 14:00 22.57 337000 764000 (1947) 68100 (1988) 291000 98900 125000 160000 175000 246000 369000 417000 556000 614000
2020-07-08 13:30 22.49 336000 764000 (1947) 68100 (1988) 291000 98900 125000 160000 175000 246000 369000 417000 556000 614000
2020-07-08 13:00 22.68 339000 764000 (1947) 68100 (1988) 291000 98900 125000 160000 175000 246000 369000 417000 556000 614000
2020-07-08 12:30 22.60 338000 764000 (1947) 68100 (1988) 291000 98900 125000 160000 175000 246000 369000 417000 556000 614000
2020-07-08 12:00 22.73 340000 764000 (1947) 68100 (1988) 291000 98900 125000 160000 175000 246000 369000 417000 556000 614000
2020-07-08 11:30 22.67 339000 764000 (1947) 68100 (1988) 291000 98900 125000 160000 175000 246000 369000 417000 556000 614000
2020-07-08 11:00 22.74 340000 764000 (1947) 68100 (1988) 291000 98900 125000 160000 175000 246000 369000 417000 556000 614000
2020-07-08 10:30 22.79 341000 764000 (1947) 68100 (1988) 291000 98900 125000 160000 175000 246000 369000 417000 556000 614000
2020-07-08 10:00 22.79 341000 764000 (1947) 68100 (1988) 291000 98900 125000 160000 175000 246000 369000 417000 556000 614000
2020-07-08 09:30 22.83 342000 764000 (1947) 68100 (1988) 291000 98900 125000 160000 175000 246000 369000 417000 556000 614000
2020-07-08 09:00 22.90 343000 764000 (1947) 68100 (1988) 291000 98900 125000 160000 175000 246000 369000 417000 556000 614000
2020-07-08 08:30 22.87 343000 764000 (1947) 68100 (1988) 291000 98900 125000 160000 175000 246000 369000 417000 556000 614000
2020-07-08 08:00 22.81 342000 764000 (1947) 68100 (1988) 291000 98900 125000 160000 175000 246000 369000 417000 556000 614000
2020-07-08 07:30 22.95 344000 764000 (1947) 68100 (1988) 291000 98900 125000 160000 175000 246000 369000 417000 556000 614000
2020-07-08 07:00 22.84 342000 764000 (1947) 68100 (1988) 291000 98900 125000 160000 175000 246000 369000 417000 556000 614000
2020-07-08 06:30 22.99 345000 764000 (1947) 68100 (1988) 291000 98900 125000 160000 175000 246000 369000 417000 556000 614000
2020-07-08 06:00 22.75 341000 764000 (1947) 68100 (1988) 291000 98900 125000 160000 175000 246000 369000 417000 556000 614000
2020-07-08 05:30 22.98 345000 764000 (1947) 68100 (1988) 291000 98900 125000 160000 175000 246000 369000 417000 556000 614000
2020-07-08 05:00 22.94 344000 764000 (1947) 68100 (1988) 291000 98900 125000 160000 175000 246000 369000 417000 556000 614000
2020-07-08 04:30 23.04 346000 764000 (1947) 68100 (1988) 291000 98900 125000 160000 175000 246000 369000 417000 556000 614000
2020-07-08 04:00 23.08 347000 764000 (1947) 68100 (1988) 291000 98900 125000 160000 175000 246000 369000 417000 556000 614000
2020-07-08 03:30 23.16 348000 764000 (1947) 68100 (1988) 291000 98900 125000 160000 175000 246000 369000 417000 556000 614000
2020-07-08 03:00 23.23 350000 764000 (1947) 68100 (1988) 291000 98900 125000 160000 175000 246000 369000 417000 556000 614000
2020-07-08 02:30 23.02 346000 764000 (1947) 68100 (1988) 291000 98900 125000 160000 175000 246000 369000 417000 556000 614000
2020-07-08 02:00 23.26 350000 764000 (1947) 68100 (1988) 291000 98900 125000 160000 175000 246000 369000 417000 556000 614000
2020-07-08 01:30 23.43 353000 764000 (1947) 68100 (1988) 291000 98900 125000 160000 175000 246000 369000 417000 556000 614000
2020-07-08 01:00 23.37 352000 764000 (1947) 68100 (1988) 291000 98900 125000 160000 175000 246000 369000 417000 556000 614000
2020-07-08 00:30 23.33 351000 764000 (1947) 68100 (1988) 291000 98900 125000 160000 175000 246000 369000 417000 556000 614000
2020-07-08 00:00 23.33 351000 764000 (1947) 68100 (1988) 291000 98900 125000 160000 175000 246000 369000 417000 556000 614000
2020-07-07 23:30 23.50 354000 806000 (1947) 66700 (1988) 297000 101000 126000 159000 179000 263000 382000 413000 545000 627000
2020-07-07 23:00 23.58 356000 806000 (1947) 66700 (1988) 297000 101000 126000 159000 179000 263000 382000 413000 545000 627000
2020-07-07 22:30 23.56 355000 806000 (1947) 66700 (1988) 297000 101000 126000 159000 179000 263000 382000 413000 545000 627000
2020-07-07 22:00 23.69 357000 806000 (1947) 66700 (1988) 297000 101000 126000 159000 179000 263000 382000 413000 545000 627000
2020-07-07 21:30 23.64 357000 806000 (1947) 66700 (1988) 297000 101000 126000 159000 179000 263000 382000 413000 545000 627000
2020-07-07 21:00 23.64 357000 806000 (1947) 66700 (1988) 297000 101000 126000 159000 179000 263000 382000 413000 545000 627000
2020-07-07 20:30 23.59 356000 806000 (1947) 66700 (1988) 297000 101000 126000 159000 179000 263000 382000 413000 545000 627000
2020-07-07 20:00 23.76 359000 806000 (1947) 66700 (1988) 297000 101000 126000 159000 179000 263000 382000 413000 545000 627000
2020-07-07 19:30 23.91 361000 806000 (1947) 66700 (1988) 297000 101000 126000 159000 179000 263000 382000 413000 545000 627000
2020-07-07 19:00 23.87 361000 806000 (1947) 66700 (1988) 297000 101000 126000 159000 179000 263000 382000 413000 545000 627000
2020-07-07 18:30 24.07 364000 806000 (1947) 66700 (1988) 297000 101000 126000 159000 179000 263000 382000 413000 545000 627000
2020-07-07 18:00 23.91 361000 806000 (1947) 66700 (1988) 297000 101000 126000 159000 179000 263000 382000 413000 545000 627000
2020-07-07 17:30 24.18 366000 806000 (1947) 66700 (1988) 297000 101000 126000 159000 179000 263000 382000 413000 545000 627000
2020-07-07 17:00 24.19 366000 806000 (1947) 66700 (1988) 297000 101000 126000 159000 179000 263000 382000 413000 545000 627000
2020-07-07 16:30 23.87 361000 806000 (1947) 66700 (1988) 297000 101000 126000 159000 179000 263000 382000 413000 545000 627000
2020-07-07 16:00 24.19 366000 806000 (1947) 66700 (1988) 297000 101000 126000 159000 179000 263000 382000 413000 545000 627000
2020-07-07 15:30 24.21 366000 806000 (1947) 66700 (1988) 297000 101000 126000 159000 179000 263000 382000 413000 545000 627000
2020-07-07 15:00 24.15 365000 806000 (1947) 66700 (1988) 297000 101000 126000 159000 179000 263000 382000 413000 545000 627000
2020-07-07 14:30 24.40 370000 806000 (1947) 66700 (1988) 297000 101000 126000 159000 179000 263000 382000 413000 545000 627000
2020-07-07 14:00 24.42 370000 806000 (1947) 66700 (1988) 297000 101000 126000 159000 179000 263000 382000 413000 545000 627000
2020-07-07 13:30 24.40 370000 806000 (1947) 66700 (1988) 297000 101000 126000 159000 179000 263000 382000 413000 545000 627000
2020-07-07 13:00 24.31 368000 806000 (1947) 66700 (1988) 297000 101000 126000 159000 179000 263000 382000 413000 545000 627000
2020-07-07 12:30 24.41 370000 806000 (1947) 66700 (1988) 297000 101000 126000 159000 179000 263000 382000 413000 545000 627000
2020-07-07 12:00 24.41 370000 806000 (1947) 66700 (1988) 297000 101000 126000 159000 179000 263000 382000 413000 545000 627000
2020-07-07 11:30 24.53 372000 806000 (1947) 66700 (1988) 297000 101000 126000 159000 179000 263000 382000 413000 545000 627000
2020-07-07 11:00 24.46 371000 806000 (1947) 66700 (1988) 297000 101000 126000 159000 179000 263000 382000 413000 545000 627000
2020-07-07 10:30 24.40 370000 806000 (1947) 66700 (1988) 297000 101000 126000 159000 179000 263000 382000 413000 545000 627000
2020-07-07 10:00 24.58 373000 806000 (1947) 66700 (1988) 297000 101000 126000 159000 179000 263000 382000 413000 545000 627000
2020-07-07 09:30 24.64 374000 806000 (1947) 66700 (1988) 297000 101000 126000 159000 179000 263000 382000 413000 545000 627000
2020-07-07 09:00 24.51 372000 806000 (1947) 66700 (1988) 297000 101000 126000 159000 179000 263000 382000 413000 545000 627000
2020-07-07 08:30 24.65 374000 806000 (1947) 66700 (1988) 297000 101000 126000 159000 179000 263000 382000 413000 545000 627000
2020-07-07 08:00 24.57 373000 806000 (1947) 66700 (1988) 297000 101000 126000 159000 179000 263000 382000 413000 545000 627000
2020-07-07 07:30 24.56 373000 806000 (1947) 66700 (1988) 297000 101000 126000 159000 179000 263000 382000 413000 545000 627000
2020-07-07 07:00 24.59 373000 806000 (1947) 66700 (1988) 297000 101000 126000 159000 179000 263000 382000 413000 545000 627000
2020-07-07 06:30 24.33 369000 806000 (1947) 66700 (1988) 297000 101000 126000 159000 179000 263000 382000 413000 545000 627000
2020-07-07 06:00 24.72 375000 806000 (1947) 66700 (1988) 297000 101000 126000 159000 179000 263000 382000 413000 545000 627000
2020-07-07 05:30 24.80 377000 806000 (1947) 66700 (1988) 297000 101000 126000 159000 179000 263000 382000 413000 545000 627000
2020-07-07 05:00 24.81 377000 806000 (1947) 66700 (1988) 297000 101000 126000 159000 179000 263000 382000 413000 545000 627000
2020-07-07 04:30 24.81 377000 806000 (1947) 66700 (1988) 297000 101000 126000 159000 179000 263000 382000 413000 545000 627000
2020-07-07 04:00 24.89 378000 806000 (1947) 66700 (1988) 297000 101000 126000 159000 179000 263000 382000 413000 545000 627000
2020-07-07 03:30 24.82 377000 806000 (1947) 66700 (1988) 297000 101000 126000 159000 179000 263000 382000 413000 545000 627000
2020-07-07 03:00 25.01 381000 806000 (1947) 66700 (1988) 297000 101000 126000 159000 179000 263000 382000 413000 545000 627000
2020-07-07 02:30 24.95 379000 806000 (1947) 66700 (1988) 297000 101000 126000 159000 179000 263000 382000 413000 545000 627000
2020-07-07 02:00 24.87 378000 806000 (1947) 66700 (1988) 297000 101000 126000 159000 179000 263000 382000 413000 545000 627000
2020-07-07 01:30 24.81 377000 806000 (1947) 66700 (1988) 297000 101000 126000 159000 179000 263000 382000 413000 545000 627000
2020-07-07 01:00 25.12 382000 806000 (1947) 66700 (1988) 297000 101000 126000 159000 179000 263000 382000 413000 545000 627000
2020-07-07 00:30 25.12 382000 806000 (1947) 66700 (1988) 297000 101000 126000 159000 179000 263000 382000 413000 545000 627000
2020-07-07 00:00 25.02 381000 806000 (1947) 66700 (1988) 297000 101000 126000 159000 179000 263000 382000 413000 545000 627000
2020-07-06 23:30 25.22 384000 824000 (1947) 64100 (1988) 302000 103000 131000 163000 181000 259000 387000 419000 551000 634000
2020-07-06 23:00 25.19 384000 824000 (1947) 64100 (1988) 302000 103000 131000 163000 181000 259000 387000 419000 551000 634000
2020-07-06 22:30 24.92 379000 824000 (1947) 64100 (1988) 302000 103000 131000 163000 181000 259000 387000 419000 551000 634000
2020-07-06 22:00 25.28 385000 824000 (1947) 64100 (1988) 302000 103000 131000 163000 181000 259000 387000 419000 551000 634000
2020-07-06 21:30 25.34 386000 824000 (1947) 64100 (1988) 302000 103000 131000 163000 181000 259000 387000 419000 551000 634000
2020-07-06 21:00 25.39 387000 824000 (1947) 64100 (1988) 302000 103000 131000 163000 181000 259000 387000 419000 551000 634000
2020-07-06 20:30 25.34 386000 824000 (1947) 64100 (1988) 302000 103000 131000 163000 181000 259000 387000 419000 551000 634000
2020-07-06 20:00 25.42 388000 824000 (1947) 64100 (1988) 302000 103000 131000 163000 181000 259000 387000 419000 551000 634000
2020-07-06 19:30 25.51 389000 824000 (1947) 64100 (1988) 302000 103000 131000 163000 181000 259000 387000 419000 551000 634000
2020-07-06 19:00 25.41 388000 824000 (1947) 64100 (1988) 302000 103000 131000 163000 181000 259000 387000 419000 551000 634000
2020-07-06 18:30 25.50 389000 824000 (1947) 64100 (1988) 302000 103000 131000 163000 181000 259000 387000 419000 551000 634000
2020-07-06 18:00 25.48 389000 824000 (1947) 64100 (1988) 302000 103000 131000 163000 181000 259000 387000 419000 551000 634000
2020-07-06 17:30 25.57 391000 824000 (1947) 64100 (1988) 302000 103000 131000 163000 181000 259000 387000 419000 551000 634000
2020-07-06 17:00 25.51 389000 824000 (1947) 64100 (1988) 302000 103000 131000 163000 181000 259000 387000 419000 551000 634000
2020-07-06 16:30 25.64 392000 824000 (1947) 64100 (1988) 302000 103000 131000 163000 181000 259000 387000 419000 551000 634000
2020-07-06 16:00 25.62 391000 824000 (1947) 64100 (1988) 302000 103000 131000 163000 181000 259000 387000 419000 551000 634000
2020-07-06 15:30 25.57 391000 824000 (1947) 64100 (1988) 302000 103000 131000 163000 181000 259000 387000 419000 551000 634000
2020-07-06 15:00 25.64 392000 824000 (1947) 64100 (1988) 302000 103000 131000 163000 181000 259000 387000 419000 551000 634000
2020-07-06 14:30 25.74 394000 824000 (1947) 64100 (1988) 302000 103000 131000 163000 181000 259000 387000 419000 551000 634000
2020-07-06 14:00 25.66 392000 824000 (1947) 64100 (1988) 302000 103000 131000 163000 181000 259000 387000 419000 551000 634000
2020-07-06 13:30 25.75 394000 824000 (1947) 64100 (1988) 302000 103000 131000 163000 181000 259000 387000 419000 551000 634000
2020-07-06 13:00 25.52 390000 824000 (1947) 64100 (1988) 302000 103000 131000 163000 181000 259000 387000 419000 551000 634000
2020-07-06 12:30 25.55 390000 824000 (1947) 64100 (1988) 302000 103000 131000 163000 181000 259000 387000 419000 551000 634000
2020-07-06 12:00 25.63 392000 824000 (1947) 64100 (1988) 302000 103000 131000 163000 181000 259000 387000 419000 551000 634000
2020-07-06 11:30 25.79 395000 824000 (1947) 64100 (1988) 302000 103000 131000 163000 181000 259000 387000 419000 551000 634000
2020-07-06 11:00 25.60 391000 824000 (1947) 64100 (1988) 302000 103000 131000 163000 181000 259000 387000 419000 551000 634000
2020-07-06 10:30 25.77 394000 824000 (1947) 64100 (1988) 302000 103000 131000 163000 181000 259000 387000 419000 551000 634000
2020-07-06 10:00 25.80 395000 824000 (1947) 64100 (1988) 302000 103000 131000 163000 181000 259000 387000 419000 551000 634000
2020-07-06 09:30 25.70 393000 824000 (1947) 64100 (1988) 302000 103000 131000 163000 181000 259000 387000 419000 551000 634000
2020-07-06 09:00 25.67 392000 824000 (1947) 64100 (1988) 302000 103000 131000 163000 181000 259000 387000 419000 551000 634000
2020-07-06 08:30 25.55 390000 824000 (1947) 64100 (1988) 302000 103000 131000 163000 181000 259000 387000 419000 551000 634000
2020-07-06 08:00 25.61 391000 824000 (1947) 64100 (1988) 302000 103000 131000 163000 181000 259000 387000 419000 551000 634000
2020-07-06 07:30 25.82 395000 824000 (1947) 64100 (1988) 302000 103000 131000 163000 181000 259000 387000 419000 551000 634000
2020-07-06 07:00 25.65 392000 824000 (1947) 64100 (1988) 302000 103000 131000 163000 181000 259000 387000 419000 551000 634000
2020-07-06 06:30 25.71 393000 824000 (1947) 64100 (1988) 302000 103000 131000 163000 181000 259000 387000 419000 551000 634000
2020-07-06 06:00 25.54 390000 824000 (1947) 64100 (1988) 302000 103000 131000 163000 181000 259000 387000 419000 551000 634000
2020-07-06 05:30 25.78 394000 824000 (1947) 64100 (1988) 302000 103000 131000 163000 181000 259000 387000 419000 551000 634000
2020-07-06 05:00 25.86 396000 824000 (1947) 64100 (1988) 302000 103000 131000 163000 181000 259000 387000 419000 551000 634000
2020-07-06 04:30 25.72 393000 824000 (1947) 64100 (1988) 302000 103000 131000 163000 181000 259000 387000 419000 551000 634000
2020-07-06 04:00 25.73 393000 824000 (1947) 64100 (1988) 302000 103000 131000 163000 181000 259000 387000 419000 551000 634000
2020-07-06 03:30 25.88 396000 824000 (1947) 64100 (1988) 302000 103000 131000 163000 181000 259000 387000 419000 551000 634000
2020-07-06 03:00 25.62 391000 824000 (1947) 64100 (1988) 302000 103000 131000 163000 181000 259000 387000 419000 551000 634000
2020-07-06 02:30 25.93 397000 824000 (1947) 64100 (1988) 302000 103000 131000 163000 181000 259000 387000 419000 551000 634000
2020-07-06 02:00 25.65 392000 824000 (1947) 64100 (1988) 302000 103000 131000 163000 181000 259000 387000 419000 551000 634000
2020-07-06 01:30 25.73 393000 824000 (1947) 64100 (1988) 302000 103000 131000 163000 181000 259000 387000 419000 551000 634000
2020-07-06 01:00 25.80 395000 824000 (1947) 64100 (1988) 302000 103000 131000 163000 181000 259000 387000 419000 551000 634000
2020-07-06 00:30 25.78 394000 824000 (1947) 64100 (1988) 302000 103000 131000 163000 181000 259000 387000 419000 551000 634000
2020-07-06 00:00 25.93 397000 824000 (1947) 64100 (1988) 302000 103000 131000 163000 181000 259000 387000 419000 551000 634000

A total of 377 rows are displayed for years 1942 through 2019.